createdAt,value
2019-06-07T00:01:46.527Z,5.55
2019-06-07T00:04:16.269Z,5.20
2019-06-07T00:06:45.662Z,6.05
2019-06-07T00:09:17.730Z,5.45
2019-06-07T00:11:45.873Z,5.37
2019-06-07T00:14:16.611Z,5.37
2019-06-07T00:16:46.099Z,5.90
2019-06-07T00:19:16.222Z,5.95
2019-06-07T00:22:15.456Z,6.40
2019-06-07T00:24:19.398Z,5.42
2019-06-07T00:26:58.329Z,5.62
2019-06-07T00:29:21.750Z,7.00
2019-06-07T00:31:50.149Z,6.67
2019-06-07T00:34:22.119Z,5.87
2019-06-07T00:36:50.274Z,5.35
2019-06-07T00:39:24.687Z,5.80
2019-06-07T00:41:50.450Z,6.67
2019-06-07T00:44:23.098Z,5.72
2019-06-07T00:46:50.992Z,6.70
2019-06-07T00:49:36.094Z,5.87
2019-06-07T00:51:51.986Z,5.60
2019-06-07T00:54:24.663Z,6.28
2019-06-07T00:56:54.972Z,6.45
2019-06-07T00:59:29.178Z,5.97
2019-06-07T01:01:55.267Z,5.60
2019-06-07T01:04:26.631Z,6.25
2019-06-07T01:06:55.506Z,5.85
2019-06-07T01:09:25.534Z,6.30
2019-06-07T01:11:55.190Z,6.28
2019-06-07T01:14:27.760Z,6.60
2019-06-07T01:17:01.403Z,6.47
2019-06-07T01:19:27.772Z,6.53
2019-06-07T01:21:57.481Z,7.17
2019-06-07T01:24:28.053Z,6.65
2019-06-07T01:26:57.541Z,6.62
2019-06-07T01:29:30.393Z,6.35
2019-06-07T01:31:57.803Z,7.10
2019-06-07T01:34:27.039Z,6.83
2019-06-07T01:36:56.278Z,7.08
2019-06-07T01:39:29.730Z,6.97
2019-06-07T01:41:56.582Z,7.33
2019-06-07T01:44:28.103Z,7.22
2019-06-07T01:46:56.725Z,7.30
2019-06-07T01:49:28.112Z,7.35
2019-06-07T01:51:58.872Z,7.92
2019-06-07T01:54:53.158Z,8.00
2019-06-07T01:56:59.092Z,9.23
2019-06-07T01:59:31.008Z,8.03
2019-06-07T02:01:59.373Z,9.60
2019-06-07T02:04:32.406Z,8.43
2019-06-07T02:06:59.669Z,8.35
2019-06-07T02:09:31.757Z,8.20
2019-06-07T02:11:59.850Z,8.63
2019-06-07T02:14:32.467Z,8.18
2019-06-07T02:16:59.981Z,8.98
2019-06-07T02:19:32.735Z,8.48
2019-06-07T02:22:00.281Z,9.18
2019-06-07T02:24:35.135Z,9.25
2019-06-07T02:27:00.510Z,10.50
2019-06-07T02:29:33.334Z,9.90
2019-06-07T02:32:00.969Z,9.83
2019-06-07T02:34:36.016Z,9.80
2019-06-07T02:37:01.072Z,10.38
2019-06-07T02:39:37.594Z,10.43
2019-06-07T02:42:03.244Z,10.05
2019-06-07T02:44:38.575Z,10.78
2019-06-07T02:47:04.841Z,10.78
2019-06-07T02:49:40.487Z,10.63
2019-06-07T02:52:05.048Z,11.83
2019-06-07T02:54:39.540Z,12.03
2019-06-07T02:57:05.651Z,11.50
2019-06-07T03:00:02.933Z,12.18
2019-06-07T03:02:05.865Z,11.60
2019-06-07T03:04:41.566Z,12.35
2019-06-07T03:07:06.374Z,12.40
2019-06-07T03:09:37.207Z,11.75
2019-06-07T03:12:09.594Z,13.13
2019-06-07T03:14:39.408Z,12.98
2019-06-07T03:17:11.903Z,12.25
2019-06-07T03:22:11.553Z,10.93
2019-06-07T03:24:42.292Z,12.20
2019-06-07T03:29:42.781Z,11.12
2019-06-07T03:32:12.307Z,11.40
2019-06-07T03:34:43.665Z,12.55
2019-06-07T03:37:12.468Z,11.43
2019-06-07T03:39:41.719Z,12.23
2019-06-07T03:42:10.909Z,13.03
2019-06-07T03:44:41.578Z,27.60
2019-06-07T03:47:11.170Z,29.87
2019-06-07T03:49:42.677Z,21.65
2019-06-07T03:52:11.612Z,15.63
2019-06-07T03:54:41.141Z,15.15
2019-06-07T03:57:10.317Z,15.60
2019-06-07T03:59:41.561Z,15.48
2019-06-07T04:02:10.594Z,13.18
2019-06-07T04:04:39.973Z,15.58
2019-06-07T04:07:09.227Z,16.15
2019-06-07T04:09:42.029Z,14.68
2019-06-07T04:12:09.597Z,15.85
2019-06-07T04:14:42.501Z,15.95
2019-06-07T04:17:10.312Z,14.20
2019-06-07T04:19:43.330Z,15.72
2019-06-07T04:22:10.461Z,16.32
2019-06-07T04:24:41.958Z,15.70
2019-06-07T04:27:10.650Z,16.82
2019-06-07T04:30:04.834Z,14.43
2019-06-07T04:32:11.051Z,14.68
2019-06-07T04:34:43.241Z,14.53
2019-06-07T04:37:11.215Z,15.28
2019-06-07T04:39:44.684Z,14.65
2019-06-07T04:42:11.989Z,14.65
2019-06-07T04:44:43.138Z,15.18
2019-06-07T04:47:12.345Z,14.95
2019-06-07T04:49:44.092Z,13.60
2019-06-07T04:52:14.470Z,14.55
2019-06-07T04:54:45.970Z,13.13
2019-06-07T04:57:15.432Z,14.15
2019-06-07T05:00:12.109Z,14.45
2019-06-07T05:02:18.504Z,14.35
2019-06-07T05:04:47.681Z,14.18
2019-06-07T05:07:17.091Z,14.13
2019-06-07T05:09:46.572Z,13.32
2019-06-07T05:12:15.972Z,14.15
2019-06-07T05:14:45.241Z,12.68
2019-06-07T05:17:14.781Z,12.70
2019-06-07T05:19:44.829Z,13.22
2019-06-07T05:22:14.146Z,13.25
2019-06-07T05:24:43.929Z,12.28
2019-06-07T05:27:13.517Z,13.20
2019-06-07T05:29:44.372Z,12.05
2019-06-07T05:32:14.339Z,12.70
2019-06-07T05:34:47.239Z,12.00
2019-06-07T05:37:14.948Z,13.55
2019-06-07T05:39:46.379Z,12.80
2019-06-07T05:42:15.125Z,12.13
2019-06-07T05:44:45.850Z,11.85
2019-06-07T05:47:15.335Z,12.90
2019-06-07T05:49:46.961Z,13.38
2019-06-07T05:52:15.634Z,12.45
2019-06-07T05:54:46.824Z,12.63
2019-06-07T05:57:15.709Z,12.05
2019-06-07T05:59:47.550Z,12.13
2019-06-07T06:02:22.684Z,12.00
2019-06-07T06:04:49.217Z,12.10
2019-06-07T06:07:17.878Z,12.30
2019-06-07T06:09:47.650Z,12.13
2019-06-07T06:12:33.950Z,10.98
2019-06-07T06:14:48.045Z,12.30
2019-06-07T06:17:17.237Z,11.40
2019-06-07T06:19:50.425Z,10.93
2019-06-07T06:22:17.437Z,10.95
2019-06-07T06:25:17.827Z,11.73
2019-06-07T06:29:50.305Z,10.90
2019-06-07T06:34:53.642Z,10.28
2019-06-07T06:37:20.955Z,11.33
2019-06-07T06:39:50.365Z,10.18
2019-06-07T06:42:19.484Z,9.55
2019-06-07T06:44:53.572Z,9.30
2019-06-07T06:47:19.715Z,9.30
2019-06-07T06:49:50.141Z,9.43
2019-06-07T06:52:19.916Z,9.03
2019-06-07T06:54:59.420Z,9.40
2019-06-07T06:57:20.529Z,9.33
2019-06-07T06:59:52.545Z,9.50
2019-06-07T07:02:20.794Z,8.75
2019-06-07T07:04:53.506Z,10.28
2019-06-07T07:07:20.924Z,7.65
2019-06-07T07:09:54.754Z,8.33
2019-06-07T07:12:21.073Z,8.00
2019-06-07T07:14:52.956Z,8.95
2019-06-07T07:17:46.290Z,8.93
2019-06-07T07:19:54.933Z,8.63
2019-06-07T07:22:23.084Z,7.97
2019-06-07T07:24:54.794Z,8.18
2019-06-07T07:27:23.222Z,8.40
2019-06-07T07:30:10.239Z,7.40
2019-06-07T07:32:23.508Z,8.13
2019-06-07T07:35:00.004Z,7.58
2019-06-07T07:37:23.888Z,7.40
2019-06-07T07:40:01.147Z,7.33
2019-06-07T07:42:24.095Z,8.63
2019-06-07T07:44:55.131Z,7.30
2019-06-07T07:47:24.318Z,6.83
2019-06-07T07:49:58.508Z,7.10
2019-06-07T07:52:24.442Z,6.85
2019-06-07T07:54:56.617Z,6.85
2019-06-07T07:57:24.714Z,6.92
2019-06-07T08:00:12.088Z,7.28
2019-06-07T08:02:25.124Z,7.33
2019-06-07T08:05:20.550Z,7.55
2019-06-07T08:07:25.618Z,6.92
2019-06-07T08:09:57.738Z,7.12
2019-06-07T08:12:26.109Z,6.45
2019-06-07T08:14:58.488Z,7.20
2019-06-07T08:17:26.566Z,6.40
2019-06-07T08:19:57.519Z,6.95
2019-06-07T08:22:26.862Z,7.25
2019-06-07T08:24:59.833Z,6.20
2019-06-07T08:27:27.309Z,6.70
2019-06-07T08:30:16.067Z,6.70
2019-06-07T08:32:27.731Z,6.70
2019-06-07T08:35:05.620Z,6.72
2019-06-07T08:40:01.458Z,6.10
2019-06-07T08:42:36.877Z,6.28
2019-06-07T08:45:03.611Z,5.25
2019-06-07T08:47:32.068Z,4.72
2019-06-07T08:50:07.236Z,4.83
2019-06-07T08:52:32.541Z,5.78
2019-06-07T08:55:04.983Z,5.53
2019-06-07T08:57:32.866Z,5.58
2019-06-07T09:00:15.733Z,4.78
2019-06-07T09:05:06.962Z,5.08
2019-06-07T09:07:33.373Z,4.55
2019-06-07T09:10:09.508Z,5.12
2019-06-07T09:15:14.829Z,4.83
2019-06-07T09:17:34.243Z,5.05
2019-06-07T09:20:21.546Z,5.37
2019-06-07T09:22:37.021Z,5.50
2019-06-07T09:25:19.616Z,4.87
2019-06-07T09:27:38.394Z,5.45
2019-06-07T09:30:16.308Z,5.40
2019-06-07T09:32:40.613Z,5.58
2019-06-07T09:35:16.871Z,9.20
2019-06-07T09:38:07.294Z,5.75
2019-06-07T09:40:24.137Z,5.72
2019-06-07T09:42:42.999Z,5.35
2019-06-07T09:45:14.120Z,5.60
2019-06-07T09:47:43.150Z,6.30
2019-06-07T09:50:12.730Z,5.87
2019-06-07T09:52:58.049Z,6.03
2019-06-07T09:55:23.747Z,5.90
2019-06-07T09:57:44.065Z,5.97
2019-06-07T10:00:39.980Z,5.60
2019-06-07T10:02:47.247Z,6.15
2019-06-07T10:05:16.522Z,6.58
2019-06-07T10:08:00.008Z,5.55
2019-06-07T10:12:47.868Z,6.40
2019-06-07T10:15:17.243Z,5.60
2019-06-07T10:17:46.614Z,6.28
2019-06-07T10:20:15.845Z,6.08
2019-06-07T10:22:45.138Z,6.33
2019-06-07T10:25:14.572Z,6.75
2019-06-07T10:27:44.051Z,5.97
2019-06-07T10:30:13.340Z,6.25
2019-06-07T10:32:42.778Z,5.95
2019-06-07T10:35:15.446Z,6.12
2019-06-07T10:37:42.958Z,5.62
2019-06-07T10:40:12.231Z,5.30
2019-06-07T10:42:41.549Z,5.85
2019-06-07T10:45:12.318Z,5.67
2019-06-07T10:47:41.768Z,6.12
2019-06-07T10:50:30.507Z,5.10
2019-06-07T10:52:59.784Z,5.75
2019-06-07T10:55:28.988Z,6.12
2019-06-07T10:57:58.372Z,5.85
2019-06-07T11:00:27.850Z,6.28
2019-06-07T11:02:57.176Z,6.25
2019-06-07T11:05:26.564Z,5.67
2019-06-07T11:07:55.837Z,6.45
2019-06-07T11:10:25.230Z,6.08
2019-06-07T11:12:54.565Z,5.92
2019-06-07T11:15:23.804Z,5.87
2019-06-07T11:17:53.207Z,5.47
2019-06-07T11:20:22.488Z,5.60
2019-06-07T11:22:51.892Z,5.70
2019-06-07T11:25:21.233Z,5.72
2019-06-07T11:27:50.506Z,5.75
2019-06-07T11:30:19.964Z,5.95
2019-06-07T11:32:49.195Z,5.80
2019-06-07T11:35:19.148Z,5.20
2019-06-07T11:37:48.656Z,5.00
2019-06-07T11:40:34.006Z,4.72
2019-06-07T11:42:52.779Z,4.70
2019-06-07T11:45:21.174Z,5.00
2019-06-07T11:47:50.674Z,4.87
2019-06-07T11:50:19.926Z,5.05
2019-06-07T11:52:49.180Z,5.20
2019-06-07T11:55:19.103Z,5.42
2019-06-07T11:57:50.222Z,5.40
2019-06-07T12:00:20.745Z,4.77
2019-06-07T12:02:50.019Z,5.30
2019-06-07T12:05:20.382Z,4.30
2019-06-07T12:07:49.761Z,3.92
2019-06-07T12:10:22.864Z,3.83
2019-06-07T12:12:50.582Z,4.08
2019-06-07T12:15:19.829Z,3.98
2019-06-07T12:17:49.130Z,4.78
2019-06-07T12:20:20.798Z,4.37
2019-06-07T12:22:49.438Z,4.05
2019-06-07T12:25:24.293Z,4.62
2019-06-07T12:27:49.857Z,4.72
2019-06-07T12:30:26.014Z,4.47
2019-06-07T12:32:50.431Z,4.30
2019-06-07T12:35:20.011Z,4.72
2019-06-07T12:37:49.316Z,4.83
2019-06-07T12:40:27.766Z,4.95
2019-06-07T12:42:49.540Z,4.58
2019-06-07T12:45:40.179Z,4.72
2019-06-07T12:47:49.907Z,4.45
2019-06-07T12:50:19.727Z,4.75
2019-06-07T12:52:48.923Z,4.60
2019-06-07T12:55:20.289Z,4.90
2019-06-07T12:57:49.405Z,5.10
2019-06-07T13:00:20.135Z,4.65
2019-06-07T13:02:49.817Z,5.22
2019-06-07T13:05:19.954Z,4.67
2019-06-07T13:07:49.466Z,4.65
2019-06-07T13:10:20.037Z,5.17
2019-06-07T13:12:49.523Z,4.60
2019-06-07T13:15:21.856Z,4.90
2019-06-07T13:17:50.012Z,4.42
2019-06-07T13:20:20.405Z,4.75
2019-06-07T13:22:49.989Z,4.62
2019-06-07T13:25:21.242Z,4.55
2019-06-07T13:27:50.321Z,3.87
2019-06-07T13:30:21.037Z,4.00
2019-06-07T13:32:50.401Z,4.60
2019-06-07T13:35:21.926Z,4.80
2019-06-07T13:37:50.831Z,4.90
2019-06-07T13:40:21.255Z,5.12
2019-06-07T13:42:51.137Z,4.50
2019-06-07T13:45:22.153Z,4.47
2019-06-07T13:47:51.885Z,4.70
2019-06-07T13:50:21.716Z,4.70
2019-06-07T13:52:51.154Z,4.85
2019-06-07T13:55:21.846Z,4.90
2019-06-07T13:57:51.120Z,4.95
2019-06-07T14:00:22.707Z,4.87
2019-06-07T14:02:51.597Z,5.05
2019-06-07T14:05:23.041Z,5.10
2019-06-07T14:07:52.392Z,4.70
2019-06-07T14:10:21.776Z,4.90
2019-06-07T14:12:51.089Z,4.53
2019-06-07T14:15:20.952Z,4.47
2019-06-07T14:17:51.994Z,4.40
2019-06-07T14:23:14.673Z,4.25
2019-06-07T14:25:43.915Z,4.62
2019-06-07T14:28:13.089Z,4.10
2019-06-07T14:30:42.537Z,4.03
2019-06-07T14:33:11.709Z,4.50
2019-06-07T14:35:41.016Z,4.30
2019-06-07T14:38:10.193Z,4.50
2019-06-07T14:40:39.388Z,4.42
2019-06-07T14:43:08.690Z,4.87
2019-06-07T14:45:37.874Z,4.83
2019-06-07T14:48:08.718Z,4.85
2019-06-07T14:50:37.929Z,4.13
2019-06-07T14:53:07.175Z,4.85
2019-06-07T14:55:36.414Z,4.70
2019-06-07T14:58:05.636Z,4.80
2019-06-07T15:00:40.125Z,4.50
2019-06-07T15:03:09.411Z,4.85
2019-06-07T15:05:40.477Z,4.87
2019-06-07T15:08:09.613Z,5.10
2019-06-07T15:10:39.463Z,5.60
2019-06-07T15:13:08.798Z,4.30
2019-06-07T15:15:39.755Z,5.75
2019-06-07T15:18:10.581Z,5.03
2019-06-07T15:20:39.866Z,8.97
2019-06-07T15:23:10.798Z,5.37
2019-06-07T15:25:40.252Z,4.30
2019-06-07T15:28:10.066Z,4.92
2019-06-07T15:30:40.106Z,4.90
2019-06-07T15:33:09.583Z,5.62
2019-06-07T15:35:39.206Z,5.53
2019-06-07T15:38:08.582Z,4.75
2019-06-07T15:40:39.465Z,4.72
2019-06-07T15:43:10.623Z,4.85
2019-06-07T15:45:40.002Z,5.47
2019-06-07T15:48:11.003Z,4.62
2019-06-07T15:50:40.585Z,4.60
2019-06-07T15:53:09.935Z,4.70
2019-06-07T15:55:45.085Z,5.20
2019-06-07T15:58:12.375Z,5.03
2019-06-07T16:00:42.604Z,5.40
2019-06-07T16:03:12.118Z,4.85
2019-06-07T16:05:41.568Z,5.00
2019-06-07T16:08:10.921Z,5.45
2019-06-07T16:10:40.962Z,5.10
2019-06-07T16:13:10.434Z,4.75
2019-06-07T16:15:41.370Z,12.33
2019-06-07T16:18:11.166Z,4.53
2019-06-07T16:20:41.509Z,4.70
2019-06-07T16:23:10.773Z,4.37
2019-06-07T16:25:40.213Z,4.95
2019-06-07T16:28:09.414Z,4.55
2019-06-07T16:30:38.662Z,4.92
2019-06-07T16:33:07.942Z,4.22
2019-06-07T16:35:37.119Z,4.80
2019-06-07T16:38:06.342Z,4.42
2019-06-07T16:40:36.399Z,4.90
2019-06-07T16:43:16.893Z,5.30
2019-06-07T16:45:36.613Z,4.67
2019-06-07T16:48:05.863Z,4.70
2019-06-07T16:50:36.684Z,4.78
2019-06-07T16:53:06.087Z,4.33
2019-06-07T16:55:36.489Z,5.15
2019-06-07T16:58:05.695Z,5.25
2019-06-07T17:00:35.376Z,4.97
2019-06-07T17:03:05.285Z,4.58
2019-06-07T17:05:34.512Z,4.60
2019-06-07T17:08:03.758Z,4.80
2019-06-07T17:10:32.931Z,4.95
2019-06-07T17:13:02.499Z,5.30
2019-06-07T17:15:32.068Z,4.78
2019-06-07T17:18:02.182Z,7.40
2019-06-07T17:20:31.521Z,5.40
2019-06-07T17:23:01.201Z,5.12
2019-06-07T17:25:31.716Z,5.80
2019-06-07T17:28:01.921Z,5.80
2019-06-07T17:30:31.657Z,5.67
2019-06-07T17:33:00.984Z,5.35
2019-06-07T17:35:30.273Z,7.15
2019-06-07T17:37:59.542Z,6.85
2019-06-07T17:40:28.838Z,7.28
2019-06-07T17:42:58.032Z,7.50
2019-06-07T17:45:27.297Z,6.60
2019-06-07T17:47:56.711Z,7.90
2019-06-07T17:50:26.061Z,6.97
2019-06-07T17:52:55.448Z,11.65
2019-06-07T17:55:24.908Z,9.45
2019-06-07T17:57:54.321Z,11.25
2019-06-07T18:00:28.510Z,11.25
2019-06-07T18:02:55.040Z,7.55
2019-06-07T18:05:24.353Z,6.92
2019-06-07T18:07:53.977Z,6.70
2019-06-07T18:10:38.093Z,7.35
2019-06-07T18:13:07.428Z,7.83
2019-06-07T18:15:46.324Z,6.45
2019-06-07T18:18:15.817Z,6.53
2019-06-07T18:20:45.175Z,5.97
2019-06-07T18:23:14.554Z,6.03
2019-06-07T18:25:43.881Z,6.03
2019-06-07T18:28:13.771Z,5.53
2019-06-07T18:30:43.073Z,5.75
2019-06-07T18:33:12.333Z,14.90
2019-06-07T18:35:41.859Z,8.30
2019-06-07T18:38:11.282Z,6.45
2019-06-07T18:40:41.942Z,8.70
2019-06-07T18:43:11.552Z,9.70
2019-06-07T18:45:42.724Z,7.42
2019-06-07T18:48:11.981Z,6.70
2019-06-07T18:50:41.307Z,8.75
2019-06-07T18:53:10.646Z,7.00
2019-06-07T18:55:42.021Z,7.50
2019-06-07T18:58:11.354Z,10.63
2019-06-07T19:00:40.860Z,18.37
2019-06-07T19:03:10.129Z,29.05
2019-06-07T19:05:39.338Z,22.55
2019-06-07T19:08:08.716Z,12.18
2019-06-07T19:10:38.063Z,12.68
2019-06-07T19:13:07.451Z,11.00
2019-06-07T19:15:36.888Z,9.60
2019-06-07T19:18:06.366Z,14.58
2019-06-07T19:20:35.854Z,15.83
2019-06-07T19:23:05.442Z,10.88
2019-06-07T19:25:35.035Z,8.88
2019-06-07T19:28:04.582Z,11.45
2019-06-07T19:30:34.435Z,11.68
2019-06-07T19:33:03.883Z,8.98
2019-06-07T19:35:33.515Z,11.35
2019-06-07T19:38:02.755Z,8.83
2019-06-07T19:40:32.198Z,7.45
2019-06-07T19:43:03.916Z,9.30
2019-06-07T19:45:32.296Z,10.05
2019-06-07T19:48:02.687Z,19.92
2019-06-07T19:50:32.094Z,19.77
2019-06-07T19:53:01.415Z,17.62
2019-06-07T19:55:30.629Z,10.35
2019-06-07T19:57:59.884Z,17.37
2019-06-07T20:00:29.170Z,18.98
2019-06-07T20:02:58.399Z,18.02
2019-06-07T20:05:27.718Z,17.35
2019-06-07T20:07:58.414Z,15.75
2019-06-07T20:10:27.912Z,12.73
2019-06-07T20:12:58.563Z,17.98
2019-06-07T20:15:29.555Z,17.32
2019-06-07T20:17:59.323Z,14.80
2019-06-07T20:20:30.099Z,14.13
2019-06-07T20:23:00.830Z,11.63
2019-06-07T20:25:30.251Z,14.63
2019-06-07T20:27:59.737Z,11.63
2019-06-07T20:30:29.848Z,15.05
2019-06-07T20:32:59.817Z,19.90
2019-06-07T20:35:29.322Z,21.02
2019-06-07T20:37:58.920Z,19.73
2019-06-07T20:40:28.264Z,20.02
2019-06-07T20:42:57.848Z,14.07
2019-06-07T20:45:33.645Z,22.13
2019-06-07T20:47:58.251Z,18.95
2019-06-07T20:50:27.656Z,15.80
2019-06-07T20:52:59.377Z,15.95
2019-06-07T20:55:27.837Z,15.23
2019-06-07T20:57:57.049Z,10.35
2019-06-07T21:00:26.291Z,10.68
2019-06-07T21:02:55.514Z,13.62
2019-06-07T21:05:24.819Z,12.33
2019-06-07T21:07:53.994Z,11.35
2019-06-07T21:10:23.650Z,10.25
2019-06-07T21:12:52.882Z,11.70
2019-06-07T21:15:22.155Z,10.98
2019-06-07T21:17:51.560Z,11.40
2019-06-07T21:20:20.743Z,12.35
2019-06-07T21:22:49.943Z,11.88
2019-06-07T21:25:19.137Z,12.37
2019-06-07T21:27:48.389Z,10.82
2019-06-07T21:30:17.696Z,11.05
2019-06-07T21:32:46.950Z,11.83
2019-06-07T21:35:16.858Z,12.68
2019-06-07T21:37:46.077Z,11.60
2019-06-07T21:40:15.450Z,11.45
2019-06-07T21:42:44.633Z,11.75
2019-06-07T21:45:15.358Z,10.70
2019-06-07T21:47:44.662Z,11.48
2019-06-07T21:50:17.428Z,11.78
2019-06-07T21:52:46.841Z,13.10
2019-06-07T21:55:16.149Z,12.25
2019-06-07T21:57:47.137Z,11.78
2019-06-07T22:00:18.799Z,11.10
2019-06-07T22:02:48.182Z,12.58
2019-06-07T22:05:17.436Z,11.57
2019-06-07T22:07:46.748Z,11.05
2019-06-07T22:10:16.196Z,11.80
2019-06-07T22:12:45.545Z,12.28
2019-06-07T22:15:32.115Z,11.75
2019-06-07T22:17:47.466Z,10.90
2019-06-07T22:20:16.857Z,10.30
2019-06-07T22:22:46.180Z,11.63
2019-06-07T22:25:15.572Z,11.28
2019-06-07T22:27:45.004Z,11.80
2019-06-07T22:30:14.557Z,11.00
2019-06-07T22:32:44.047Z,10.85
2019-06-07T22:35:13.442Z,11.60
2019-06-07T22:37:42.620Z,11.33
2019-06-07T22:40:12.535Z,10.68
2019-06-07T22:42:42.005Z,10.55
2019-06-07T22:45:11.282Z,10.10
2019-06-07T22:47:40.687Z,11.15
2019-06-07T22:50:10.872Z,10.32
2019-06-07T22:52:40.481Z,11.00
2019-06-07T22:55:10.322Z,11.25
2019-06-07T22:57:57.634Z,11.50
2019-06-07T23:00:28.515Z,11.88
2019-06-07T23:02:57.797Z,10.82
2019-06-07T23:05:27.218Z,10.80
2019-06-07T23:07:56.601Z,11.18
2019-06-07T23:10:25.925Z,14.10
2019-06-07T23:12:55.218Z,13.60
2019-06-07T23:15:24.630Z,13.53
2019-06-07T23:17:53.824Z,12.47
2019-06-07T23:20:23.143Z,13.18
2019-06-07T23:22:54.560Z,12.95
2019-06-07T23:25:24.880Z,12.20
2019-06-07T23:27:54.216Z,12.70
2019-06-07T23:30:23.396Z,12.13
2019-06-07T23:32:52.686Z,12.03
2019-06-07T23:35:22.136Z,11.55
2019-06-07T23:37:52.737Z,12.05
2019-06-07T23:40:22.038Z,11.75
2019-06-07T23:42:51.369Z,11.83
2019-06-07T23:45:21.714Z,11.60
2019-06-07T23:47:51.093Z,14.43
2019-06-07T23:50:20.265Z,13.62
2019-06-07T23:52:49.990Z,15.88
2019-06-07T23:55:20.092Z,14.15
2019-06-07T23:57:49.667Z,14.50
